MZ-0024 weather

Sussundenga Airport
Sussundenga, Manica Province, Mozambique

Public forecast

Using degrees Celsius for public forecast. Weather courtesy of forecast.io.

METAR (pilot weather report)

Closest report is Chimoio Airport, 17.5 nm (32.5 km) NNE. Retrieved 2019/05/19 21:00 UTC (2 hours ago):

FQCH 192100Z 00000KT 9999 FEW015 16/15 Q1025

TAF (pilot weather forecast)

Forecast is more than 6 hours old.

Closest forecast is Chimoio Airport, 17.5 nm (32.5 km) NNE. Retrieved 2019/05/19 12:00 UTC (11 hours ago):

TAF FQCH 191000Z 1912/2012 10008KT 9999 BKN015 TX25/1913Z TN16/2003Z BECMG 1918/1920 23010KT BECMG 2006/2008 34008KT